sensor_id;sensor_type;location;lat;lon;timestamp;P1;durP1;ratioP1;P2;durP2;ratioP2
55756;SDS011;41676;44.610;44.078;2023-02-11T00:00:02;37.92;;;15.65;;
55756;SDS011;41676;44.610;44.078;2023-02-11T00:05:04;35.10;;;13.90;;
55756;SDS011;41676;44.610;44.078;2023-02-11T00:10:06;44.55;;;16.67;;
55756;SDS011;41676;44.610;44.078;2023-02-11T00:15:08;35.38;;;15.80;;
55756;SDS011;41676;44.610;44.078;2023-02-11T00:20:09;33.10;;;15.50;;
55756;SDS011;41676;44.610;44.078;2023-02-11T00:25:10;27.85;;;14.07;;
55756;SDS011;41676;44.610;44.078;2023-02-11T00:30:11;29.20;;;14.23;;
55756;SDS011;41676;44.610;44.078;2023-02-11T00:35:12;36.28;;;14.38;;
55756;SDS011;41676;44.610;44.078;2023-02-11T00:40:12;32.75;;;15.07;;
55756;SDS011;41676;44.610;44.078;2023-02-11T00:45:15;33.70;;;15.30;;
55756;SDS011;41676;44.610;44.078;2023-02-11T00:50:16;35.50;;;14.35;;
55756;SDS011;41676;44.610;44.078;2023-02-11T00:55:16;36.55;;;15.55;;
55756;SDS011;41676;44.610;44.078;2023-02-11T01:00:17;36.05;;;15.30;;
55756;SDS011;41676;44.610;44.078;2023-02-11T01:05:19;30.98;;;14.45;;
55756;SDS011;41676;44.610;44.078;2023-02-11T01:10:20;30.65;;;14.13;;
55756;SDS011;41676;44.610;44.078;2023-02-11T01:15:21;31.80;;;15.05;;
55756;SDS011;41676;44.610;44.078;2023-02-11T01:20:23;35.30;;;15.77;;
55756;SDS011;41676;44.610;44.078;2023-02-11T01:25:25;32.95;;;15.13;;
55756;SDS011;41676;44.610;44.078;2023-02-11T01:30:26;42.03;;;16.20;;
55756;SDS011;41676;44.610;44.078;2023-02-11T01:35:27;34.50;;;15.48;;
55756;SDS011;41676;44.610;44.078;2023-02-11T01:40:28;30.60;;;14.80;;
55756;SDS011;41676;44.610;44.078;2023-02-11T01:45:41;33.40;;;14.88;;
55756;SDS011;41676;44.610;44.078;2023-02-11T01:50:48;40.00;;;16.70;;
55756;SDS011;41676;44.610;44.078;2023-02-11T01:55:51;35.75;;;13.95;;
55756;SDS011;41676;44.610;44.078;2023-02-11T02:01:13;38.75;;;14.02;;
55756;SDS011;41676;44.610;44.078;2023-02-11T02:06:25;38.13;;;14.05;;
55756;SDS011;41676;44.610;44.078;2023-02-11T02:11:34;34.58;;;15.35;;
55756;SDS011;41676;44.610;44.078;2023-02-11T02:16:35;32.13;;;14.82;;
55756;SDS011;41676;44.610;44.078;2023-02-11T02:42:44;29.15;;;13.80;;
55756;SDS011;41676;44.610;44.078;2023-02-11T02:47:47;36.97;;;14.15;;
55756;SDS011;41676;44.610;44.078;2023-02-11T02:58:15;35.43;;;11.00;;
55756;SDS011;41676;44.610;44.078;2023-02-11T03:03:29;37.03;;;13.80;;
55756;SDS011;41676;44.610;44.078;2023-02-11T03:08:39;29.30;;;12.35;;
55756;SDS011;41676;44.610;44.078;2023-02-11T03:13:45;32.78;;;13.68;;
55756;SDS011;41676;44.610;44.078;2023-02-11T03:19:08;29.08;;;12.40;;
55756;SDS011;41676;44.610;44.078;2023-02-11T03:24:32;29.35;;;13.73;;
55756;SDS011;41676;44.610;44.078;2023-02-11T03:29:38;35.15;;;13.27;;
55756;SDS011;41676;44.610;44.078;2023-02-11T03:40:31;33.63;;;14.38;;
55756;SDS011;41676;44.610;44.078;2023-02-11T03:45:36;33.33;;;14.32;;
55756;SDS011;41676;44.610;44.078;2023-02-11T03:50:38;31.05;;;13.45;;
55756;SDS011;41676;44.610;44.078;2023-02-11T03:55:41;27.60;;;14.13;;
55756;SDS011;41676;44.610;44.078;2023-02-11T04:00:43;32.35;;;14.15;;
55756;SDS011;41676;44.610;44.078;2023-02-11T04:05:44;30.65;;;14.00;;
55756;SDS011;41676;44.610;44.078;2023-02-11T04:10:45;29.52;;;13.30;;
55756;SDS011;41676;44.610;44.078;2023-02-11T04:15:46;37.03;;;15.88;;
55756;SDS011;41676;44.610;44.078;2023-02-11T04:20:46;46.80;;;18.23;;
55756;SDS011;41676;44.610;44.078;2023-02-11T04:25:48;41.38;;;16.48;;
55756;SDS011;41676;44.610;44.078;2023-02-11T04:30:49;40.40;;;16.77;;
55756;SDS011;41676;44.610;44.078;2023-02-11T04:35:50;28.45;;;13.70;;
55756;SDS011;41676;44.610;44.078;2023-02-11T04:40:51;28.00;;;13.32;;
55756;SDS011;41676;44.610;44.078;2023-02-11T04:45:55;34.97;;;14.68;;
55756;SDS011;41676;44.610;44.078;2023-02-11T04:50:57;33.20;;;15.00;;
55756;SDS011;41676;44.610;44.078;2023-02-11T04:55:58;26.90;;;14.05;;
55756;SDS011;41676;44.610;44.078;2023-02-11T05:01:06;32.55;;;13.50;;
55756;SDS011;41676;44.610;44.078;2023-02-11T05:06:08;32.80;;;13.45;;
55756;SDS011;41676;44.610;44.078;2023-02-11T05:11:19;31.60;;;12.52;;
55756;SDS011;41676;44.610;44.078;2023-02-11T05:16:21;29.95;;;13.13;;
55756;SDS011;41676;44.610;44.078;2023-02-11T05:21:22;28.77;;;11.80;;
55756;SDS011;41676;44.610;44.078;2023-02-11T05:26:23;27.92;;;12.70;;
55756;SDS011;41676;44.610;44.078;2023-02-11T05:31:24;30.10;;;12.63;;
55756;SDS011;41676;44.610;44.078;2023-02-11T05:36:25;26.77;;;12.90;;
55756;SDS011;41676;44.610;44.078;2023-02-11T05:41:26;32.35;;;13.35;;
55756;SDS011;41676;44.610;44.078;2023-02-11T05:46:27;29.52;;;12.45;;
55756;SDS011;41676;44.610;44.078;2023-02-11T05:51:28;33.13;;;13.38;;
55756;SDS011;41676;44.610;44.078;2023-02-11T05:56:28;30.90;;;14.25;;
55756;SDS011;41676;44.610;44.078;2023-02-11T06:01:29;30.63;;;13.35;;
55756;SDS011;41676;44.610;44.078;2023-02-11T06:06:30;30.77;;;14.27;;
55756;SDS011;41676;44.610;44.078;2023-02-11T06:11:31;33.67;;;15.70;;
55756;SDS011;41676;44.610;44.078;2023-02-11T06:16:32;29.38;;;13.10;;
55756;SDS011;41676;44.610;44.078;2023-02-11T06:21:33;34.70;;;15.43;;
55756;SDS011;41676;44.610;44.078;2023-02-11T06:26:33;29.80;;;14.98;;
55756;SDS011;41676;44.610;44.078;2023-02-11T06:31:35;37.10;;;15.90;;
55756;SDS011;41676;44.610;44.078;2023-02-11T06:36:38;36.95;;;15.13;;
55756;SDS011;41676;44.610;44.078;2023-02-11T06:41:40;38.13;;;15.70;;
55756;SDS011;41676;44.610;44.078;2023-02-11T06:46:40;30.80;;;14.40;;
55756;SDS011;41676;44.610;44.078;2023-02-11T06:51:41;30.33;;;13.57;;
55756;SDS011;41676;44.610;44.078;2023-02-11T06:56:44;35.33;;;13.32;;
55756;SDS011;41676;44.610;44.078;2023-02-11T07:01:45;30.52;;;14.25;;
55756;SDS011;41676;44.610;44.078;2023-02-11T07:06:46;30.65;;;13.73;;
55756;SDS011;41676;44.610;44.078;2023-02-11T07:11:47;33.50;;;13.77;;
55756;SDS011;41676;44.610;44.078;2023-02-11T07:16:48;28.52;;;13.43;;
55756;SDS011;41676;44.610;44.078;2023-02-11T07:21:49;28.23;;;14.68;;
55756;SDS011;41676;44.610;44.078;2023-02-11T07:26:49;30.13;;;14.38;;
55756;SDS011;41676;44.610;44.078;2023-02-11T07:31:50;32.35;;;14.25;;
55756;SDS011;41676;44.610;44.078;2023-02-11T07:36:51;29.38;;;14.18;;
55756;SDS011;41676;44.610;44.078;2023-02-11T07:41:54;31.10;;;15.65;;
55756;SDS011;41676;44.610;44.078;2023-02-11T07:46:56;33.03;;;14.38;;
55756;SDS011;41676;44.610;44.078;2023-02-11T07:51:56;28.23;;;14.75;;
55756;SDS011;41676;44.610;44.078;2023-02-11T07:56:57;31.35;;;15.18;;
55756;SDS011;41676;44.610;44.078;2023-02-11T08:01:58;31.73;;;15.98;;
55756;SDS011;41676;44.610;44.078;2023-02-11T08:06:58;42.25;;;17.75;;
55756;SDS011;41676;44.610;44.078;2023-02-11T08:11:59;38.88;;;17.33;;
55756;SDS011;41676;44.610;44.078;2023-02-11T08:17:00;40.53;;;17.85;;
55756;SDS011;41676;44.610;44.078;2023-02-11T08:22:01;37.88;;;16.67;;
55756;SDS011;41676;44.610;44.078;2023-02-11T08:27:02;36.25;;;16.67;;
55756;SDS011;41676;44.610;44.078;2023-02-11T08:32:03;39.15;;;17.73;;
55756;SDS011;41676;44.610;44.078;2023-02-11T08:37:04;35.90;;;17.75;;
55756;SDS011;41676;44.610;44.078;2023-02-11T08:42:04;44.90;;;19.63;;
55756;SDS011;41676;44.610;44.078;2023-02-11T08:47:05;34.85;;;17.38;;
55756;SDS011;41676;44.610;44.078;2023-02-11T08:52:06;40.38;;;17.83;;
55756;SDS011;41676;44.610;44.078;2023-02-11T08:57:07;38.70;;;16.05;;
55756;SDS011;41676;44.610;44.078;2023-02-11T09:02:12;42.17;;;19.30;;
55756;SDS011;41676;44.610;44.078;2023-02-11T09:07:13;46.85;;;18.55;;
55756;SDS011;41676;44.610;44.078;2023-02-11T09:12:14;42.33;;;19.48;;
55756;SDS011;41676;44.610;44.078;2023-02-11T09:17:15;41.55;;;20.33;;
55756;SDS011;41676;44.610;44.078;2023-02-11T09:22:16;43.05;;;20.38;;
55756;SDS011;41676;44.610;44.078;2023-02-11T09:27:16;38.13;;;18.65;;
55756;SDS011;41676;44.610;44.078;2023-02-11T09:32:17;37.90;;;17.73;;
55756;SDS011;41676;44.610;44.078;2023-02-11T09:37:18;40.75;;;18.45;;
55756;SDS011;41676;44.610;44.078;2023-02-11T09:42:35;36.92;;;16.67;;
55756;SDS011;41676;44.610;44.078;2023-02-11T09:47:53;37.92;;;18.05;;
55756;SDS011;41676;44.610;44.078;2023-02-11T09:58:27;33.13;;;17.95;;
55756;SDS011;41676;44.610;44.078;2023-02-11T10:14:20;37.63;;;18.40;;
55756;SDS011;41676;44.610;44.078;2023-02-11T10:25:16;37.88;;;20.13;;
55756;SDS011;41676;44.610;44.078;2023-02-11T10:31:02;44.38;;;20.77;;
55756;SDS011;41676;44.610;44.078;2023-02-11T10:35:53;47.95;;;23.25;;
55756;SDS011;41676;44.610;44.078;2023-02-11T10:40:54;48.45;;;22.65;;
55756;SDS011;41676;44.610;44.078;2023-02-11T10:45:55;47.78;;;22.52;;
55756;SDS011;41676;44.610;44.078;2023-02-11T10:51:06;48.53;;;22.25;;
55756;SDS011;41676;44.610;44.078;2023-02-11T10:56:11;47.30;;;23.38;;
55756;SDS011;41676;44.610;44.078;2023-02-11T11:17:46;44.58;;;22.20;;
55756;SDS011;41676;44.610;44.078;2023-02-11T11:22:49;46.50;;;24.42;;
55756;SDS011;41676;44.610;44.078;2023-02-11T11:27:53;49.90;;;22.30;;
55756;SDS011;41676;44.610;44.078;2023-02-11T11:32:56;43.63;;;22.08;;
55756;SDS011;41676;44.610;44.078;2023-02-11T11:37:59;39.53;;;20.38;;
55756;SDS011;41676;44.610;44.078;2023-02-11T11:43:14;44.33;;;21.92;;
55756;SDS011;41676;44.610;44.078;2023-02-11T11:53:38;38.08;;;19.00;;
55756;SDS011;41676;44.610;44.078;2023-02-11T11:58:44;39.53;;;19.60;;
55756;SDS011;41676;44.610;44.078;2023-02-11T12:03:57;41.53;;;21.63;;
55756;SDS011;41676;44.610;44.078;2023-02-11T12:20:11;42.85;;;20.50;;
55756;SDS011;41676;44.610;44.078;2023-02-11T12:25:42;79.43;;;36.13;;
55756;SDS011;41676;44.610;44.078;2023-02-11T12:36:19;45.63;;;20.42;;
55756;SDS011;41676;44.610;44.078;2023-02-11T12:58:11;42.03;;;20.08;;
55756;SDS011;41676;44.610;44.078;2023-02-11T13:03:21;41.05;;;21.15;;
55756;SDS011;41676;44.610;44.078;2023-02-11T13:08:36;48.40;;;21.95;;
55756;SDS011;41676;44.610;44.078;2023-02-11T13:24:30;41.22;;;19.30;;
55756;SDS011;41676;44.610;44.078;2023-02-11T13:34:55;48.53;;;24.50;;
55756;SDS011;41676;44.610;44.078;2023-02-11T13:40:02;49.75;;;22.70;;
55756;SDS011;41676;44.610;44.078;2023-02-11T13:45:29;41.17;;;19.60;;
55756;SDS011;41676;44.610;44.078;2023-02-11T13:50:31;36.50;;;20.55;;
55756;SDS011;41676;44.610;44.078;2023-02-11T13:55:37;44.10;;;21.55;;
55756;SDS011;41676;44.610;44.078;2023-02-11T14:06:09;42.10;;;19.67;;
55756;SDS011;41676;44.610;44.078;2023-02-11T14:22:47;38.67;;;20.27;;
55756;SDS011;41676;44.610;44.078;2023-02-11T14:27:41;47.83;;;21.15;;
55756;SDS011;41676;44.610;44.078;2023-02-11T14:43:42;42.10;;;20.17;;
55756;SDS011;41676;44.610;44.078;2023-02-11T14:48:47;43.33;;;20.27;;
55756;SDS011;41676;44.610;44.078;2023-02-11T14:53:53;42.22;;;20.08;;
55756;SDS011;41676;44.610;44.078;2023-02-11T14:58:58;48.40;;;20.02;;
55756;SDS011;41676;44.610;44.078;2023-02-11T15:04:02;41.23;;;20.53;;
55756;SDS011;41676;44.610;44.078;2023-02-11T15:09:12;41.13;;;19.50;;
55756;SDS011;41676;44.610;44.078;2023-02-11T15:14:31;43.57;;;21.20;;
55756;SDS011;41676;44.610;44.078;2023-02-11T15:19:37;41.30;;;19.55;;
55756;SDS011;41676;44.610;44.078;2023-02-11T15:24:41;48.17;;;21.52;;
55756;SDS011;41676;44.610;44.078;2023-02-11T15:29:43;43.22;;;18.98;;
55756;SDS011;41676;44.610;44.078;2023-02-11T15:34:49;41.78;;;18.98;;
55756;SDS011;41676;44.610;44.078;2023-02-11T15:39:52;41.38;;;17.60;;
55756;SDS011;41676;44.610;44.078;2023-02-11T15:50:23;42.65;;;21.17;;
55756;SDS011;41676;44.610;44.078;2023-02-11T15:55:29;51.83;;;23.42;;
55756;SDS011;41676;44.610;44.078;2023-02-11T16:00:32;57.67;;;25.40;;
55756;SDS011;41676;44.610;44.078;2023-02-11T16:05:36;48.35;;;23.95;;
55756;SDS011;41676;44.610;44.078;2023-02-11T16:10:37;112.15;;;46.72;;
55756;SDS011;41676;44.610;44.078;2023-02-11T16:15:45;107.47;;;51.75;;
55756;SDS011;41676;44.610;44.078;2023-02-11T16:20:56;58.13;;;27.55;;
55756;SDS011;41676;44.610;44.078;2023-02-11T16:26:00;47.67;;;21.58;;
55756;SDS011;41676;44.610;44.078;2023-02-11T16:31:08;46.92;;;21.95;;
55756;SDS011;41676;44.610;44.078;2023-02-11T16:36:10;39.60;;;19.73;;
55756;SDS011;41676;44.610;44.078;2023-02-11T16:41:13;42.30;;;21.27;;
55756;SDS011;41676;44.610;44.078;2023-02-11T16:46:14;41.15;;;19.55;;
55756;SDS011;41676;44.610;44.078;2023-02-11T17:02:25;74.82;;;34.92;;
55756;SDS011;41676;44.610;44.078;2023-02-11T17:07:27;52.25;;;24.98;;
55756;SDS011;41676;44.610;44.078;2023-02-11T17:12:28;76.03;;;38.53;;
55756;SDS011;41676;44.610;44.078;2023-02-11T17:17:29;58.45;;;24.75;;
55756;SDS011;41676;44.610;44.078;2023-02-11T17:22:30;52.47;;;28.20;;
55756;SDS011;41676;44.610;44.078;2023-02-11T17:27:31;47.72;;;22.27;;
55756;SDS011;41676;44.610;44.078;2023-02-11T17:32:32;46.47;;;22.35;;
55756;SDS011;41676;44.610;44.078;2023-02-11T17:37:33;50.95;;;21.63;;
55756;SDS011;41676;44.610;44.078;2023-02-11T17:42:33;54.17;;;21.13;;
55756;SDS011;41676;44.610;44.078;2023-02-11T17:47:34;53.45;;;22.33;;
55756;SDS011;41676;44.610;44.078;2023-02-11T17:52:35;46.80;;;19.15;;
55756;SDS011;41676;44.610;44.078;2023-02-11T17:57:37;50.47;;;21.25;;
55756;SDS011;41676;44.610;44.078;2023-02-11T18:02:38;47.42;;;20.05;;
55756;SDS011;41676;44.610;44.078;2023-02-11T18:07:38;43.53;;;19.08;;
55756;SDS011;41676;44.610;44.078;2023-02-11T18:12:39;41.10;;;19.08;;
55756;SDS011;41676;44.610;44.078;2023-02-11T18:17:40;42.40;;;18.77;;
55756;SDS011;41676;44.610;44.078;2023-02-11T18:22:41;53.50;;;19.02;;
55756;SDS011;41676;44.610;44.078;2023-02-11T18:27:43;41.33;;;20.02;;
55756;SDS011;41676;44.610;44.078;2023-02-11T18:32:45;48.83;;;21.33;;
55756;SDS011;41676;44.610;44.078;2023-02-11T18:37:46;40.22;;;18.65;;
55756;SDS011;41676;44.610;44.078;2023-02-11T18:42:47;37.00;;;16.50;;
55756;SDS011;41676;44.610;44.078;2023-02-11T18:47:47;43.00;;;17.98;;
55756;SDS011;41676;44.610;44.078;2023-02-11T18:52:48;60.83;;;23.75;;
55756;SDS011;41676;44.610;44.078;2023-02-11T18:57:49;78.65;;;33.42;;
55756;SDS011;41676;44.610;44.078;2023-02-11T19:02:51;59.25;;;24.25;;
55756;SDS011;41676;44.610;44.078;2023-02-11T19:07:52;71.13;;;26.40;;
55756;SDS011;41676;44.610;44.078;2023-02-11T19:12:55;51.17;;;21.00;;
55756;SDS011;41676;44.610;44.078;2023-02-11T19:17:58;54.97;;;23.98;;
55756;SDS011;41676;44.610;44.078;2023-02-11T19:22:58;49.72;;;21.48;;
55756;SDS011;41676;44.610;44.078;2023-02-11T19:28:00;47.22;;;18.65;;
55756;SDS011;41676;44.610;44.078;2023-02-11T19:33:00;43.20;;;18.80;;
55756;SDS011;41676;44.610;44.078;2023-02-11T19:38:02;47.67;;;20.65;;
55756;SDS011;41676;44.610;44.078;2023-02-11T19:43:04;49.67;;;20.55;;
55756;SDS011;41676;44.610;44.078;2023-02-11T19:48:05;47.92;;;20.73;;
55756;SDS011;41676;44.610;44.078;2023-02-11T19:53:05;42.88;;;19.83;;
55756;SDS011;41676;44.610;44.078;2023-02-11T19:58:06;46.30;;;19.45;;
55756;SDS011;41676;44.610;44.078;2023-02-11T20:03:07;72.30;;;31.67;;
55756;SDS011;41676;44.610;44.078;2023-02-11T20:08:08;45.70;;;20.77;;
55756;SDS011;41676;44.610;44.078;2023-02-11T20:13:09;95.07;;;35.33;;
55756;SDS011;41676;44.610;44.078;2023-02-11T20:18:10;46.72;;;20.20;;
55756;SDS011;41676;44.610;44.078;2023-02-11T20:23:10;55.08;;;21.27;;
55756;SDS011;41676;44.610;44.078;2023-02-11T20:28:11;51.45;;;20.20;;
55756;SDS011;41676;44.610;44.078;2023-02-11T20:33:12;48.70;;;19.42;;
55756;SDS011;41676;44.610;44.078;2023-02-11T20:38:12;49.88;;;18.48;;
55756;SDS011;41676;44.610;44.078;2023-02-11T20:43:13;46.28;;;18.92;;
55756;SDS011;41676;44.610;44.078;2023-02-11T20:48:15;46.33;;;19.05;;
55756;SDS011;41676;44.610;44.078;2023-02-11T20:53:15;39.53;;;17.13;;
55756;SDS011;41676;44.610;44.078;2023-02-11T20:58:16;41.08;;;18.42;;
55756;SDS011;41676;44.610;44.078;2023-02-11T21:03:17;46.40;;;20.08;;
55756;SDS011;41676;44.610;44.078;2023-02-11T21:08:17;45.40;;;18.55;;
55756;SDS011;41676;44.610;44.078;2023-02-11T21:13:18;50.50;;;16.42;;
55756;SDS011;41676;44.610;44.078;2023-02-11T21:18:19;46.40;;;17.48;;
55756;SDS011;41676;44.610;44.078;2023-02-11T21:23:20;42.80;;;15.50;;
55756;SDS011;41676;44.610;44.078;2023-02-11T21:28:22;42.75;;;17.05;;
55756;SDS011;41676;44.610;44.078;2023-02-11T21:33:26;37.75;;;15.52;;
55756;SDS011;41676;44.610;44.078;2023-02-11T21:38:28;38.90;;;15.70;;
55756;SDS011;41676;44.610;44.078;2023-02-11T21:43:29;35.25;;;15.93;;
55756;SDS011;41676;44.610;44.078;2023-02-11T21:48:31;37.83;;;14.98;;
55756;SDS011;41676;44.610;44.078;2023-02-11T21:53:31;34.25;;;15.32;;
55756;SDS011;41676;44.610;44.078;2023-02-11T21:58:32;32.67;;;15.13;;
55756;SDS011;41676;44.610;44.078;2023-02-11T22:03:34;30.70;;;13.43;;
55756;SDS011;41676;44.610;44.078;2023-02-11T22:08:34;34.47;;;13.93;;
55756;SDS011;41676;44.610;44.078;2023-02-11T22:13:36;44.80;;;15.98;;
55756;SDS011;41676;44.610;44.078;2023-02-11T22:18:36;33.60;;;14.00;;
55756;SDS011;41676;44.610;44.078;2023-02-11T22:23:38;36.75;;;14.05;;
55756;SDS011;41676;44.610;44.078;2023-02-11T22:28:39;40.80;;;14.52;;
55756;SDS011;41676;44.610;44.078;2023-02-11T22:33:40;33.45;;;13.70;;
55756;SDS011;41676;44.610;44.078;2023-02-11T22:38:40;35.88;;;15.57;;
55756;SDS011;41676;44.610;44.078;2023-02-11T22:43:41;38.42;;;16.10;;
55756;SDS011;41676;44.610;44.078;2023-02-11T22:48:43;38.58;;;15.43;;
55756;SDS011;41676;44.610;44.078;2023-02-11T22:53:47;39.50;;;15.38;;
55756;SDS011;41676;44.610;44.078;2023-02-11T22:58:50;39.72;;;16.35;;
55756;SDS011;41676;44.610;44.078;2023-02-11T23:03:52;35.30;;;16.10;;
55756;SDS011;41676;44.610;44.078;2023-02-11T23:08:53;41.08;;;17.40;;
55756;SDS011;41676;44.610;44.078;2023-02-11T23:13:54;41.35;;;17.25;;
55756;SDS011;41676;44.610;44.078;2023-02-11T23:18:57;42.50;;;17.65;;
55756;SDS011;41676;44.610;44.078;2023-02-11T23:24:04;42.60;;;17.58;;
55756;SDS011;41676;44.610;44.078;2023-02-11T23:29:07;39.90;;;18.08;;
55756;SDS011;41676;44.610;44.078;2023-02-11T23:34:09;44.28;;;18.05;;
55756;SDS011;41676;44.610;44.078;2023-02-11T23:39:12;41.08;;;17.95;;
55756;SDS011;41676;44.610;44.078;2023-02-11T23:44:14;43.28;;;18.20;;
55756;SDS011;41676;44.610;44.078;2023-02-11T23:49:15;46.83;;;19.17;;
55756;SDS011;41676;44.610;44.078;2023-02-11T23:54:16;45.60;;;19.33;;
55756;SDS011;41676;44.610;44.078;2023-02-11T23:59:16;50.08;;;19.60;;
